Time;durP1;ratioP1;P1;durP2;ratioP2;P2;SDS_P1;SDS_P2;PMS_P1;PMS_P2;Temp;Humidity;BMP_temperature;BMP_pressure;BME280_temperature;BME280_humidity;BME280_pressure;Samples;Min_cycle;Max_cycle;Signal;HPM_P1;HPM_P2
2023/03/12 00:00:09;;;;;;;7.50;6.70;;;;;;;-3.45;95.08;98589.54;434239;1257;127420;-68
2023/03/12 00:10:15;;;;;;;12.20;8.20;;;;;;;-3.57;95.46;98587.05;434497;1257;141283;-67
2023/03/12 00:20:22;;;;;;;12.70;9.50;;;;;;;-3.66;95.67;98590.17;434328;1254;142097;-66
2023/03/12 00:30:28;;;;;;;10.40;8.20;;;;;;;-3.74;96.07;98586.58;435793;1257;142590;-67
2023/03/12 00:40:34;;;;;;;10.60;7.80;;;;;;;-3.75;96.23;98589.00;434154;1257;141717;-66
2023/03/12 00:50:38;;;;;;;;;;;;;;;-3.83;96.41;98585.23;433241;1256;141571;-66
2023/03/12 01:00:44;;;;;;;10.20;7.30;;;;;;;-3.85;96.55;98577.55;433532;1259;179898;-66
2023/03/12 01:10:50;;;;;;;12.10;9.20;;;;;;;-3.70;96.86;98579.14;433729;1257;199498;-66
2023/03/12 01:20:56;;;;;;;14.90;10.50;;;;;;;-3.72;96.52;98576.62;433198;1255;211162;-65
2023/03/12 01:31:05;;;;;;;;;;;;;;;-3.82;96.53;98577.01;433284;1257;141620;-66
2023/03/12 01:41:11;;;;;;;11.40;9.10;;;;;;;-3.90;96.84;98572.21;434288;1257;129266;-66
2023/03/12 01:51:16;;;;;;;;;;;;;;;-3.90;97.19;98569.14;432955;1254;144735;-66
2023/03/12 02:01:24;;;;;;;9.50;8.20;;;;;;;-3.85;97.25;98562.54;433319;1254;128772;-65
2023/03/12 02:11:30;;;;;;;11.30;8.50;;;;;;;-3.86;97.44;98563.41;433081;1256;147851;-66
2023/03/12 02:21:38;;;;;;;8.60;6.50;;;;;;;-3.88;97.55;98572.84;432986;1257;143651;-66
2023/03/12 02:31:47;;;;;;;15.50;6.50;;;;;;;-3.85;97.78;98573.64;433330;1257;141656;-65
2023/03/12 02:41:56;;;;;;;11.30;7.30;;;;;;;-3.87;97.83;98573.34;432951;1257;143480;-65
2023/03/12 02:52:02;;;;;;;9.10;6.20;;;;;;;-3.81;98.12;98582.96;435537;1255;142988;-66
2023/03/12 03:02:11;;;;;;;10.80;6.80;;;;;;;-3.47;98.56;98585.63;432613;1257;143274;-66
2023/03/12 03:12:17;;;;;;;8.00;5.60;;;;;;;-3.12;98.36;98599.02;433331;1254;142645;-66
2023/03/12 03:22:21;;;;;;;;;;;;;;;-2.83;98.12;98617.84;433960;1254;142316;-66
2023/03/12 03:32:28;;;;;;;8.70;5.50;;;;;;;-2.62;97.78;98633.96;432521;1257;128652;-65
2023/03/12 03:42:34;;;;;;;7.80;5.40;;;;;;;-2.49;97.40;98643.05;435521;1256;142170;-66
2023/03/12 03:52:39;;;;;;;6.50;5.00;;;;;;;-2.39;97.42;98640.20;434401;1257;141132;-65
2023/03/12 04:02:45;;;;;;;6.90;5.00;;;;;;;-2.33;97.15;98635.60;434277;1254;142617;-65
2023/03/12 04:12:51;;;;;;;9.60;6.50;;;;;;;-2.25;96.85;98637.12;435676;1255;141841;-66
2023/03/12 04:22:59;;;;;;;7.20;5.60;;;;;;;-2.22;96.85;98629.66;432602;1257;141929;-65
2023/03/12 04:33:06;;;;;;;7.90;5.00;;;;;;;-2.23;96.52;98635.49;433465;1254;141257;-65
2023/03/12 04:43:10;;;;;;;;;;;;;;;-2.23;96.52;98640.66;435328;1254;142306;-64
2023/03/12 04:53:16;;;;;;;5.30;4.50;;;;;;;-2.22;96.43;98644.05;434103;1254;128286;-66
2023/03/12 05:03:20;;;;;;;;;;;;;;;-2.18;96.42;98655.59;433209;1255;140231;-67
2023/03/12 05:13:25;;;;;;;5.50;4.20;;;;;;;-2.11;96.21;98664.35;434012;1257;128291;-65
2023/03/12 05:23:33;;;;;;;6.90;4.00;;;;;;;-2.03;96.07;98668.41;433977;1256;142543;-65
2023/03/12 05:33:39;;;;;;;6.10;3.90;;;;;;;-1.98;96.01;98670.31;433766;1254;142122;-65
2023/03/12 05:43:43;;;;;;;;;;;;;;;-1.96;95.70;98695.16;434896;1254;141508;-66
2023/03/12 05:53:49;;;;;;;3.10;2.80;;;;;;;-1.92;95.60;98713.23;433565;1254;133749;-67
2023/03/12 06:03:54;;;;;;;7.60;4.30;;;;;;;-1.88;95.62;98732.52;433421;1254;141612;-65
2023/03/12 06:14:00;;;;;;;5.10;4.30;;;;;;;-1.82;95.56;98746.60;433200;1257;143087;-66
2023/03/12 06:24:07;;;;;;;6.10;3.90;;;;;;;-1.77;95.10;98767.39;433669;1254;141603;-66
2023/03/12 06:34:15;;;;;;;6.90;4.80;;;;;;;-1.67;95.03;98777.41;433769;1257;142148;-66
2023/03/12 06:44:21;;;;;;;5.20;4.00;;;;;;;-1.05;94.99;98776.54;435939;1253;141167;-67
2023/03/12 06:54:27;;;;;;;6.20;4.60;;;;;;;-0.76;94.04;98781.34;434542;1256;142330;-66
2023/03/12 07:04:33;;;;;;;4.40;3.90;;;;;;;-0.88;93.08;98780.16;433662;1255;142531;-67
2023/03/12 07:14:39;;;;;;;5.90;4.20;;;;;;;-0.95;93.03;98799.10;433539;1252;142778;-66
2023/03/12 07:24:45;;;;;;;5.90;3.90;;;;;;;-0.97;92.88;98816.86;434389;1253;142367;-67
2023/03/12 07:34:50;;;;;;;4.40;3.00;;;;;;;-0.51;92.77;98824.60;434351;1255;141364;-66
2023/03/12 07:44:56;;;;;;;4.20;3.00;;;;;;;1.20;92.72;98818.41;435132;1254;195374;-69
2023/03/12 07:55:02;;;;;;;4.60;3.30;;;;;;;3.44;87.61;98820.13;433629;1256;152231;-67
2023/03/12 08:05:09;;;;;;;3.30;2.60;;;;;;;7.70;87.39;98829.16;432805;1257;142019;-67
2023/03/12 08:15:16;;;;;;;5.20;2.80;;;;;;;7.42;77.50;98837.42;433399;1254;142752;-68
2023/03/12 08:25:23;;;;;;;4.50;2.40;;;;;;;8.00;77.94;98843.86;434009;1253;142381;-66
2023/03/12 08:35:30;;;;;;;3.10;2.40;;;;;;;11.08;72.81;98847.95;433080;1254;142883;-66
2023/03/12 08:45:36;;;;;;;4.20;2.80;;;;;;;11.01;68.45;98853.23;433825;1255;142177;-64
2023/03/12 08:55:42;;;;;;;4.30;1.90;;;;;;;11.39;64.50;98859.07;434060;1254;141590;-67
2023/03/12 09:05:49;;;;;;;3.80;2.00;;;;;;;10.65;59.33;98865.15;434346;1255;141706;-67
2023/03/12 09:16:00;;;;;;;2.30;1.70;;;;;;;10.04;58.23;98881.50;434482;1254;142498;-66
2023/03/12 09:26:08;;;;;;;3.20;2.20;;;;;;;8.28;57.06;98890.89;433500;1257;141651;-67
2023/03/12 09:36:14;;;;;;;4.70;1.70;;;;;;;5.43;58.62;98903.38;434521;1257;141955;-67
2023/03/12 09:46:27;;;;;;;3.10;1.50;;;;;;;4.46;59.41;98899.55;434361;1257;139231;-67
2023/03/12 09:56:34;;;;;;;3.90;2.10;;;;;;;4.24;59.61;98915.17;433602;1254;195800;-66
2023/03/12 10:06:49;;;;;;;3.40;2.30;;;;;;;4.11;59.90;98915.45;434283;1256;140764;-67
2023/03/12 10:17:08;;;;;;;4.60;1.60;;;;;;;4.31;59.35;98922.14;434311;1253;144232;-67
2023/03/12 10:27:17;;;;;;;3.90;1.60;;;;;;;4.03;59.09;98934.02;433605;1254;196168;-66
2023/03/12 10:37:26;;;;;;;3.30;1.50;;;;;;;3.93;59.46;98935.73;433431;1256;140723;-66
2023/03/12 10:47:36;;;;;;;5.00;3.00;;;;;;;3.95;59.50;98935.82;432993;1256;142111;-66
2023/03/12 10:57:43;;;;;;;3.30;1.30;;;;;;;3.50;58.98;98940.44;434129;1257;139624;-68
2023/03/12 11:07:49;;;;;;;3.60;1.80;;;;;;;3.43;59.90;98939.57;434107;1255;141942;-66
2023/03/12 11:18:25;;;;;;;3.70;2.30;;;;;;;3.25;60.16;98938.27;433231;1257;141728;-67
2023/03/12 11:28:38;;;;;;;3.90;3.00;;;;;;;3.53;60.66;98940.69;434790;1255;144468;-67
2023/03/12 11:38:53;;;;;;;3.70;1.80;;;;;;;3.69;60.42;98947.75;433472;1257;140348;-65
2023/03/12 11:49:14;;;;;;;4.60;2.10;;;;;;;3.73;60.05;98946.70;434141;1257;145822;-66
2023/03/12 11:59:34;;;;;;;3.50;1.70;;;;;;;3.63;59.10;98948.16;433410;1255;163057;-66
2023/03/12 12:09:48;;;;;;;4.80;1.90;;;;;;;3.54;59.41;98941.48;433564;1256;140288;-67
2023/03/12 12:20:10;;;;;;;2.00;1.40;;;;;;;3.66;58.59;98948.39;433966;1255;145161;-67
2023/03/12 12:30:27;;;;;;;2.50;1.60;;;;;;;3.64;58.90;98953.48;433777;1254;206327;-66
2023/03/12 12:40:38;;;;;;;3.70;2.30;;;;;;;3.65;58.34;98956.73;433867;1255;145719;-66
2023/03/12 12:50:47;;;;;;;6.10;1.60;;;;;;;3.58;58.05;98958.62;434944;1254;144007;-67
2023/03/12 13:00:58;;;;;;;7.00;2.70;;;;;;;3.50;58.04;98966.61;433820;1254;139641;-67
2023/03/12 13:11:22;;;;;;;4.80;2.30;;;;;;;3.25;57.93;98982.05;433609;1256;142473;-67
2023/03/12 13:21:37;;;;;;;7.20;2.80;;;;;;;3.14;57.69;98973.20;434043;1257;140370;-66
2023/03/12 13:31:43;;;;;;;6.50;2.20;;;;;;;3.14;58.15;98965.39;433619;1252;140297;-66
2023/03/12 13:41:54;;;;;;;4.00;1.70;;;;;;;3.18;58.44;98960.19;433055;1256;140939;-67
2023/03/12 13:52:18;;;;;;;2.80;1.40;;;;;;;3.26;58.83;98977.51;434017;1254;141489;-66
2023/03/12 14:02:28;;;;;;;3.60;1.80;;;;;;;3.31;58.99;98994.05;433331;1254;142836;-65
2023/03/12 14:12:43;;;;;;;2.80;1.30;;;;;;;3.21;58.75;99008.31;434938;1257;143325;-67
2023/03/12 14:22:54;;;;;;;5.80;3.00;;;;;;;3.02;59.25;99010.52;434183;1256;140384;-68
2023/03/12 14:33:02;;;;;;;4.50;2.60;;;;;;;3.00;59.51;99015.27;434129;1257;140075;-67
2023/03/12 14:43:23;;;;;;;6.90;2.90;;;;;;;3.13;59.97;99021.66;435783;1257;140917;-67
2023/03/12 14:53:32;;;;;;;6.90;2.40;;;;;;;3.16;59.88;99019.80;433062;1257;140824;-67
2023/03/12 15:03:43;;;;;;;4.20;2.50;;;;;;;3.04;59.69;99017.33;436408;1258;141520;-67
2023/03/12 15:13:50;;;;;;;4.40;3.20;;;;;;;2.92;60.24;99013.17;434572;1256;141190;-67
2023/03/12 15:23:56;;;;;;;2.70;2.00;;;;;;;2.77;60.50;99011.69;433690;1257;141446;-68
2023/03/12 15:34:04;;;;;;;5.50;3.10;;;;;;;2.77;60.35;99010.67;434523;1256;141962;-67
2023/03/12 15:44:19;;;;;;;3.80;2.50;;;;;;;2.62;60.31;99019.90;434896;1253;141572;-69
2023/03/12 15:54:27;;;;;;;4.40;2.60;;;;;;;2.37;60.80;99024.90;436011;1257;140158;-71
2023/03/12 16:04:32;;;;;;;4.80;3.40;;;;;;;2.22;61.34;99019.23;436186;1255;141301;-68
2023/03/12 16:14:39;;;;;;;20.50;6.20;;;;;;;2.05;61.93;99025.22;435224;1256;141528;-70
2023/03/12 16:24:45;;;;;;;27.70;13.30;;;;;;;1.78;62.50;99021.76;436200;1256;140577;-71
2023/03/12 16:34:50;;;;;;;21.20;10.10;;;;;;;1.48;63.25;99029.72;436217;1253;141711;-71
2023/03/12 16:44:57;;;;;;;30.10;11.80;;;;;;;1.22;64.49;99050.81;436752;1253;208069;-70
2023/03/12 16:55:03;;;;;;;74.00;32.40;;;;;;;0.99;65.40;99049.14;436280;1253;140414;-71
2023/03/12 17:05:10;;;;;;;22.20;11.30;;;;;;;0.80;66.14;99052.53;435594;1253;142579;-70
2023/03/12 17:15:20;;;;;;;32.00;17.70;;;;;;;0.59;66.88;99053.37;436631;1256;140376;-70
2023/03/12 17:25:29;;;;;;;22.20;15.00;;;;;;;0.54;67.24;99046.96;437059;1252;143646;-69
2023/03/12 17:35:35;;;;;;;25.90;14.80;;;;;;;0.50;67.55;99049.14;435488;1253;142637;-69
2023/03/12 17:45:42;;;;;;;31.70;18.50;;;;;;;0.47;68.11;99036.50;437153;1257;143433;-71
2023/03/12 17:55:48;;;;;;;48.40;31.40;;;;;;;0.51;68.26;99040.16;436251;1253;141558;-69
2023/03/12 18:05:54;;;;;;;42.10;24.70;;;;;;;0.56;68.20;99049.85;435398;1253;142383;-70
2023/03/12 18:16:00;;;;;;;37.60;22.00;;;;;;;0.62;68.29;99071.52;436008;1257;141747;-71
2023/03/12 18:26:06;;;;;;;33.90;21.60;;;;;;;0.65;68.57;99073.66;435746;1257;142369;-70
2023/03/12 18:36:12;;;;;;;33.50;19.50;;;;;;;0.64;68.89;99060.27;434729;1254;142207;-71
2023/03/12 18:46:18;;;;;;;39.40;22.90;;;;;;;0.56;69.15;99059.15;436055;1253;182777;-72
2023/03/12 18:56:24;;;;;;;36.90;19.10;;;;;;;0.50;69.66;99055.52;435510;1258;142731;-72
2023/03/12 19:06:30;;;;;;;39.70;21.50;;;;;;;0.49;70.08;99045.25;437063;1256;141191;-70
2023/03/12 19:16:54;;;;;;;34.40;21.60;;;;;;;0.51;70.47;99034.00;436092;1256;140739;-69
2023/03/12 19:27:00;;;;;;;27.30;15.70;;;;;;;0.50;70.70;99038.31;435876;1257;210877;-70
2023/03/12 19:37:06;;;;;;;20.00;13.50;;;;;;;0.52;70.93;99038.95;436026;1253;141381;-70
2023/03/12 19:47:12;;;;;;;23.90;13.20;;;;;;;0.54;70.97;99022.85;435296;1256;142370;-69
2023/03/12 19:57:20;;;;;;;24.30;13.00;;;;;;;0.57;70.85;99013.13;436172;1257;142836;-70
2023/03/12 20:07:26;;;;;;;25.30;13.00;;;;;;;0.58;70.85;99003.95;436060;1257;142323;-69
2023/03/12 20:17:32;;;;;;;29.00;14.30;;;;;;;0.61;70.98;99018.17;435381;1258;146346;-70
2023/03/12 20:27:38;;;;;;;19.80;12.20;;;;;;;0.70;70.99;99006.00;435949;1256;141369;-69
2023/03/12 20:37:44;;;;;;;13.80;8.90;;;;;;;0.73;70.82;99001.23;436234;1257;141881;-69
2023/03/12 20:47:50;;;;;;;19.10;9.30;;;;;;;0.78;70.75;99000.39;434038;1259;141578;-69
2023/03/12 20:57:55;;;;;;;22.80;10.80;;;;;;;0.84;70.53;98985.73;436687;1257;142120;-70
2023/03/12 21:08:01;;;;;;;21.50;12.20;;;;;;;0.88;70.55;98955.77;435577;1258;200899;-70
2023/03/12 21:18:07;;;;;;;15.00;9.30;;;;;;;0.90;70.65;98945.86;441074;1256;142102;-70
2023/03/12 21:28:17;;;;;;;13.50;9.00;;;;;;;0.92;70.57;98950.63;435830;1257;146415;-71
2023/03/12 21:38:22;;;;;;;12.20;7.60;;;;;;;0.95;70.39;98946.40;435647;1253;141509;-69
2023/03/12 21:48:28;;;;;;;15.30;9.60;;;;;;;0.96;70.39;98938.77;435558;1257;141787;-69
2023/03/12 21:58:35;;;;;;;16.20;9.90;;;;;;;0.95;70.38;98934.49;436000;1257;142645;-70
2023/03/12 22:08:41;;;;;;;12.50;8.50;;;;;;;1.01;70.26;98920.67;435406;1257;141309;-68
2023/03/12 22:18:47;;;;;;;12.30;7.90;;;;;;;1.09;70.24;98926.26;436324;1254;143542;-68
2023/03/12 22:28:55;;;;;;;20.50;8.90;;;;;;;1.16;70.10;98932.55;438435;1257;143457;-69
2023/03/12 22:39:01;;;;;;;10.60;5.90;;;;;;;1.25;70.42;98913.25;437471;1254;151923;-69
2023/03/12 22:49:07;;;;;;;11.90;6.50;;;;;;;1.23;71.09;98908.67;435934;1254;141531;-69
2023/03/12 22:59:13;;;;;;;7.80;4.70;;;;;;;1.12;72.19;98903.55;433706;1257;140901;-67
2023/03/12 23:09:18;;;;;;;10.30;6.20;;;;;;;1.05;72.95;98895.21;436342;1254;142081;-69
2023/03/12 23:19:24;;;;;;;10.70;7.10;;;;;;;0.97;74.18;98886.85;436027;1254;142823;-69
2023/03/12 23:29:31;;;;;;;11.40;7.60;;;;;;;0.78;75.48;98885.11;434735;1254;186182;-67
2023/03/12 23:39:37;;;;;;;13.60;7.90;;;;;;;0.62;76.87;98875.34;435362;1257;141459;-69
2023/03/12 23:49:58;;;;;;;12.70;8.00;;;;;;;0.41;77.92;98869.66;435079;1254;144998;-69
